createdAt,value
2022-12-14T00:00:32.199Z,99144.69
2022-12-14T00:02:06.838Z,99148.13
2022-12-14T00:03:40.187Z,99151.59
2022-12-14T00:05:15.927Z,99151.59
2022-12-14T00:06:49.313Z,99152.44
2022-12-14T00:08:22.742Z,99149.88
2022-12-14T00:09:56.099Z,99155.06
2022-12-14T00:11:29.984Z,99141.19
2022-12-14T00:13:03.241Z,99145.53
2022-12-14T00:14:36.716Z,99140.34
2022-12-14T00:16:11.988Z,99134.28
2022-12-14T00:17:45.391Z,99142.06
2022-12-14T00:19:18.531Z,99142.06
2022-12-14T00:20:53.407Z,99147.25
2022-12-14T00:22:26.570Z,99148.97
2022-12-14T00:24:01.081Z,99140.31
2022-12-14T00:25:34.236Z,99141.19
2022-12-14T00:27:07.613Z,99138.56
2022-12-14T00:28:41.414Z,99116.88
2022-12-14T00:30:17.616Z,99126.44
2022-12-14T00:31:51.290Z,99132.53
2022-12-14T00:33:24.645Z,99133.38
2022-12-14T00:34:58.002Z,99134.25
2022-12-14T00:36:32.646Z,99122.13
2022-12-14T00:38:04.864Z,99131.66
2022-12-14T00:39:38.343Z,99127.31
2022-12-14T00:41:12.557Z,99124.72
2022-12-14T00:42:46.020Z,99130.78
2022-12-14T00:44:19.198Z,99133.41
2022-12-14T00:45:52.733Z,99127.34
2022-12-14T00:47:27.509Z,99129.94
2022-12-14T00:49:01.168Z,99132.53
2022-12-14T00:50:34.563Z,99132.53
2022-12-14T00:52:09.320Z,99134.28
2022-12-14T00:53:45.027Z,99139.47
2022-12-14T00:55:18.778Z,99131.69
2022-12-14T00:56:51.966Z,99130.81
2022-12-14T00:58:28.087Z,99137.72
2022-12-14T01:00:01.382Z,99131.69
2022-12-14T01:01:33.782Z,99129.06
2022-12-14T01:03:08.024Z,99127.31
2022-12-14T01:04:41.542Z,99132.56
2022-12-14T01:06:16.249Z,99127.34
2022-12-14T01:07:50.958Z,99120.41
2022-12-14T01:09:25.905Z,99127.34
2022-12-14T01:10:59.277Z,99125.63
2022-12-14T01:12:32.498Z,99136.00
2022-12-14T01:14:05.817Z,99136.00
2022-12-14T01:15:39.104Z,99133.41
2022-12-14T01:17:12.524Z,99143.81
2022-12-14T01:18:46.020Z,99137.72
2022-12-14T01:20:19.482Z,99138.59
2022-12-14T01:21:53.553Z,99138.59
2022-12-14T01:23:27.663Z,99138.59
2022-12-14T01:25:01.128Z,99142.97
2022-12-14T01:26:38.857Z,99140.31
2022-12-14T01:28:12.118Z,99136.88
2022-12-14T01:29:45.625Z,99129.91
2022-12-14T01:31:21.624Z,99135.16
2022-12-14T01:32:55.138Z,99129.06
2022-12-14T01:34:28.389Z,99124.75
2022-12-14T01:36:04.947Z,99123.00
2022-12-14T01:37:38.084Z,99110.00
2022-12-14T01:39:15.162Z,99105.66
2022-12-14T01:40:48.293Z,99111.75
2022-12-14T01:42:21.647Z,99104.78
2022-12-14T01:43:56.140Z,99110.00
2022-12-14T01:45:30.119Z,99099.59
2022-12-14T01:47:12.134Z,99093.50
2022-12-14T01:48:49.969Z,99099.59
2022-12-14T01:50:30.404Z,99091.78
2022-12-14T01:52:09.163Z,99097.88
2022-12-14T01:53:42.673Z,99089.19
2022-12-14T01:55:22.342Z,99097.00
2022-12-14T01:56:56.634Z,99083.13
2022-12-14T01:58:29.999Z,99090.06
2022-12-14T02:00:07.619Z,99096.13
2022-12-14T02:01:41.845Z,99094.38
2022-12-14T02:03:19.202Z,99105.66
2022-12-14T02:04:57.430Z,99097.00
2022-12-14T02:06:35.276Z,99100.47
2022-12-14T02:08:10.180Z,99107.41
2022-12-14T02:09:46.139Z,99098.72
2022-12-14T02:11:30.536Z,99102.22
2022-12-14T02:13:11.001Z,99102.19
2022-12-14T02:14:44.598Z,99099.59
2022-12-14T02:16:17.811Z,99097.00
2022-12-14T02:17:51.270Z,99100.44
2022-12-14T02:19:23.778Z,99097.00
2022-12-14T02:21:18.294Z,99112.59
2022-12-14T02:23:12.164Z,99115.19
2022-12-14T02:25:24.076Z,99117.78
2022-12-14T02:27:11.267Z,99127.31
2022-12-14T02:29:21.157Z,99116.09
2022-12-14T02:30:59.216Z,99103.94
2022-12-14T02:32:47.577Z,99099.59
2022-12-14T02:34:31.922Z,99090.94
2022-12-14T02:36:14.628Z,99082.28
2022-12-14T02:37:55.422Z,99086.59
2022-12-14T02:39:36.148Z,99087.47
2022-12-14T02:41:18.174Z,99085.72
2022-12-14T02:43:03.230Z,99082.28
2022-12-14T02:44:47.834Z,99070.13
2022-12-14T02:46:28.067Z,99070.13
2022-12-14T02:48:04.658Z,99073.59
2022-12-14T02:49:52.856Z,99062.31
2022-12-14T02:51:36.979Z,99073.59
2022-12-14T02:53:19.526Z,99061.47
2022-12-14T02:54:58.521Z,99061.47
2022-12-14T02:56:37.847Z,99047.59
2022-12-14T02:58:17.361Z,99059.75
2022-12-14T02:59:56.356Z,99057.16
2022-12-14T03:01:30.366Z,99063.22
2022-12-14T03:03:06.342Z,99058.84
2022-12-14T03:04:45.957Z,99053.66
2022-12-14T03:06:27.141Z,99049.34
2022-12-14T03:08:01.979Z,99045.88
2022-12-14T03:09:36.035Z,99063.19
2022-12-14T03:11:21.548Z,99063.19
2022-12-14T03:12:58.281Z,99058.84
2022-12-14T03:14:35.676Z,99066.66
2022-12-14T03:16:16.354Z,99067.50
2022-12-14T03:17:53.332Z,99077.91
2022-12-14T03:19:31.048Z,99073.59
2022-12-14T03:21:08.580Z,99071.00
2022-12-14T03:22:45.967Z,99066.63
2022-12-14T03:24:24.661Z,99063.19
2022-12-14T03:26:04.553Z,99064.03
2022-12-14T03:27:41.107Z,99058.84
2022-12-14T03:29:19.809Z,99064.91
2022-12-14T03:31:00.339Z,99056.22
2022-12-14T03:32:40.010Z,99061.47
2022-12-14T03:34:16.904Z,99064.94
2022-12-14T03:35:56.389Z,99069.25
2022-12-14T03:37:36.078Z,99068.41
2022-12-14T03:39:13.974Z,99071.00
2022-12-14T03:40:54.495Z,99074.47
2022-12-14T03:42:36.901Z,99071.88
2022-12-14T03:44:21.232Z,99070.97
2022-12-14T03:46:01.481Z,99064.91
2022-12-14T03:47:54.913Z,99065.75
2022-12-14T03:49:41.260Z,99068.38
2022-12-14T03:51:22.564Z,99057.97
2022-12-14T03:53:02.500Z,99041.47
2022-12-14T03:54:46.657Z,99035.38
2022-12-14T03:56:24.547Z,99022.41
2022-12-14T03:58:19.802Z,99030.19
2022-12-14T03:59:59.815Z,99018.09
2022-12-14T04:01:42.160Z,99037.19
2022-12-14T04:03:24.131Z,99037.19
2022-12-14T04:05:04.831Z,99033.69
2022-12-14T04:06:45.381Z,99038.06
2022-12-14T04:08:26.231Z,99040.63
2022-12-14T04:10:05.058Z,99038.91
2022-12-14T04:12:15.378Z,99039.78
2022-12-14T04:14:13.981Z,99035.41
2022-12-14T04:16:06.148Z,99010.31
2022-12-14T04:17:58.934Z,99014.63
2022-12-14T04:19:40.575Z,99019.81
2022-12-14T04:21:20.475Z,99012.00
2022-12-14T04:22:58.764Z,99019.81
2022-12-14T04:24:57.334Z,99024.19
2022-12-14T04:26:34.943Z,99031.13
2022-12-14T04:28:33.337Z,99026.81
2022-12-14T04:30:08.965Z,99025.94
2022-12-14T04:31:47.178Z,99022.44
2022-12-14T04:33:40.088Z,99025.91
2022-12-14T04:35:20.445Z,99028.50
2022-12-14T04:36:57.095Z,99014.63
2022-12-14T04:38:37.058Z,99004.19
2022-12-14T04:40:15.516Z,99005.94
2022-12-14T04:41:53.683Z,99018.09
2022-12-14T04:43:31.301Z,99021.53
2022-12-14T04:45:09.551Z,99011.13
2022-12-14T04:46:44.126Z,99031.94
2022-12-14T04:48:23.325Z,99023.28
2022-12-14T04:50:02.782Z,99039.75
2022-12-14T04:51:48.284Z,99018.09
2022-12-14T04:53:26.386Z,99018.94
2022-12-14T04:55:07.453Z,99019.78
2022-12-14T04:56:47.426Z,99016.28
2022-12-14T04:58:25.823Z,99026.69
2022-12-14T05:00:00.776Z,99027.59
2022-12-14T05:01:49.131Z,99030.19
2022-12-14T05:03:28.837Z,99029.31
2022-12-14T05:05:08.617Z,99035.38
2022-12-14T05:06:57.679Z,99034.50
2022-12-14T05:08:52.703Z,99051.00
2022-12-14T05:10:37.135Z,99040.59
2022-12-14T05:12:17.717Z,99057.06
2022-12-14T05:13:51.627Z,99045.78
2022-12-14T05:15:28.723Z,99051.88
2022-12-14T05:17:08.757Z,99046.66
2022-12-14T05:18:44.301Z,99054.44
2022-12-14T05:20:19.555Z,99031.91
2022-12-14T05:21:53.179Z,99044.88
2022-12-14T05:23:26.829Z,99040.53
2022-12-14T05:25:00.507Z,99043.97
2022-12-14T05:26:33.666Z,99038.78
2022-12-14T05:28:07.056Z,99038.75
2022-12-14T05:29:40.428Z,99030.06
2022-12-14T05:31:13.142Z,99037.00
2022-12-14T05:32:46.386Z,99031.78
2022-12-14T05:34:19.814Z,99023.09
2022-12-14T05:35:53.218Z,99018.75
2022-12-14T05:37:27.874Z,99030.06
2022-12-14T05:39:01.092Z,99002.31
2022-12-14T05:40:34.307Z,99012.72
2022-12-14T05:42:07.748Z,99021.41
2022-12-14T05:43:40.261Z,99024.03
2022-12-14T05:45:14.209Z,99031.84
2022-12-14T05:46:47.404Z,99036.16
2022-12-14T05:48:20.727Z,99037.06
2022-12-14T05:49:54.070Z,99039.66
2022-12-14T05:51:27.254Z,99023.22
2022-12-14T05:53:01.726Z,99034.44
2022-12-14T05:54:39.438Z,99038.78
2022-12-14T05:56:13.480Z,99038.75
2022-12-14T05:57:46.741Z,99033.56
2022-12-14T05:59:19.913Z,99028.34
2022-12-14T06:00:53.501Z,99030.06
2022-12-14T06:02:27.301Z,99021.38
2022-12-14T06:04:00.684Z,99027.47
2022-12-14T06:05:33.946Z,99027.47
2022-12-14T06:07:10.141Z,99038.75
2022-12-14T06:08:46.887Z,99043.91
2022-12-14T06:10:20.036Z,99050.00
2022-12-14T06:11:53.197Z,99049.13
2022-12-14T06:13:26.960Z,99043.91
2022-12-14T06:15:00.562Z,99056.94
2022-12-14T06:16:36.464Z,99054.31
2022-12-14T06:18:09.700Z,99050.84
2022-12-14T06:19:49.539Z,99055.16
2022-12-14T06:21:25.741Z,99059.53
2022-12-14T06:22:59.636Z,99061.25
2022-12-14T06:24:34.548Z,99059.53
2022-12-14T06:26:08.311Z,99062.13
2022-12-14T06:27:43.000Z,99066.44
2022-12-14T06:29:17.929Z,99067.28
2022-12-14T06:30:52.205Z,99062.06
2022-12-14T06:32:25.908Z,99042.13
2022-12-14T06:34:00.534Z,99066.38
2022-12-14T06:35:33.717Z,99054.16
2022-12-14T06:37:07.867Z,99050.69
2022-12-14T06:38:41.577Z,99055.88
2022-12-14T06:40:16.577Z,99062.78
2022-12-14T06:41:52.604Z,99052.31
2022-12-14T06:43:27.063Z,99053.19
2022-12-14T06:45:00.654Z,99045.38
2022-12-14T06:46:34.534Z,99040.13
2022-12-14T06:48:08.188Z,99038.34
2022-12-14T06:49:41.574Z,99045.28
2022-12-14T06:51:15.685Z,99045.28
2022-12-14T06:52:50.515Z,99042.66
2022-12-14T06:54:25.752Z,99041.84
2022-12-14T06:56:09.859Z,99038.38
2022-12-14T06:57:43.282Z,99038.38
2022-12-14T06:59:18.324Z,99043.56
2022-12-14T07:00:51.459Z,99053.16
2022-12-14T07:02:24.863Z,99055.78
2022-12-14T07:03:59.751Z,99054.03
2022-12-14T07:05:33.443Z,99060.97
2022-12-14T07:07:07.090Z,99062.69
2022-12-14T07:08:42.099Z,99061.78
2022-12-14T07:10:16.063Z,99050.47
2022-12-14T07:11:53.516Z,99055.72
2022-12-14T07:13:27.355Z,99059.19
2022-12-14T07:15:01.039Z,99064.38
2022-12-14T07:16:37.395Z,99055.66
2022-12-14T07:18:12.505Z,99053.88
2022-12-14T07:19:45.683Z,99055.59
2022-12-14T07:21:23.953Z,99043.44
2022-12-14T07:22:57.201Z,99051.22
2022-12-14T07:24:30.739Z,99048.56
2022-12-14T07:26:04.968Z,99051.16
2022-12-14T07:27:40.505Z,99062.47
2022-12-14T07:29:15.558Z,99048.53
2022-12-14T07:30:49.227Z,99050.25
2022-12-14T07:32:22.716Z,99056.31
2022-12-14T07:33:58.396Z,99053.69
2022-12-14T07:35:32.099Z,99062.34
2022-12-14T07:37:06.186Z,99051.97
2022-12-14T07:38:43.425Z,99044.09
2022-12-14T07:40:17.794Z,99073.56
2022-12-14T07:41:52.288Z,99070.97
2022-12-14T07:43:31.266Z,99064.06
2022-12-14T07:45:05.999Z,99079.69
2022-12-14T07:46:39.348Z,99060.47
2022-12-14T07:48:12.876Z,99065.59
2022-12-14T07:49:46.527Z,99073.38
2022-12-14T07:51:23.255Z,99074.19
2022-12-14T07:52:56.591Z,99075.09
2022-12-14T07:54:30.391Z,99065.53
2022-12-14T07:56:05.721Z,99054.09
2022-12-14T07:57:39.443Z,99068.84
2022-12-14T07:59:16.689Z,99068.91
2022-12-14T08:00:50.041Z,99068.84
2022-12-14T08:02:23.608Z,99071.44
2022-12-14T08:03:59.248Z,99081.88
2022-12-14T08:05:32.976Z,99078.47
2022-12-14T08:07:06.187Z,99080.19
2022-12-14T08:08:40.222Z,99082.81
2022-12-14T08:10:13.450Z,99094.97
2022-12-14T08:11:47.252Z,99094.91
2022-12-14T08:13:20.958Z,99086.22
2022-12-14T08:14:56.110Z,99081.00
2022-12-14T08:16:31.227Z,99076.69
2022-12-14T08:18:04.926Z,99089.66
2022-12-14T08:19:38.035Z,99089.53
2022-12-14T08:21:14.203Z,99092.97
2022-12-14T08:22:47.429Z,99093.81
2022-12-14T08:24:21.932Z,99095.53
2022-12-14T08:25:55.645Z,99099.81
2022-12-14T08:27:31.086Z,99102.41
2022-12-14T08:29:04.720Z,99111.19
2022-12-14T08:30:41.134Z,99111.19
2022-12-14T08:32:14.285Z,99112.84
2022-12-14T08:33:48.393Z,99112.78
2022-12-14T08:35:21.979Z,99110.09
2022-12-14T08:36:56.269Z,99103.09
2022-12-14T08:38:30.085Z,99111.78
2022-12-14T08:40:04.404Z,99093.41
2022-12-14T08:41:38.275Z,99102.81
2022-12-14T08:43:12.086Z,99094.97
2022-12-14T08:44:45.304Z,99095.88
2022-12-14T08:46:25.299Z,99097.69
2022-12-14T08:47:59.071Z,99092.50
2022-12-14T08:49:33.312Z,99095.94
2022-12-14T08:51:08.396Z,99090.69
2022-12-14T08:52:41.833Z,99093.28
2022-12-14T08:54:14.998Z,99103.72
2022-12-14T08:55:48.652Z,99107.25
2022-12-14T08:57:24.785Z,99108.06
2022-12-14T08:58:58.655Z,99097.56
2022-12-14T09:00:32.136Z,99097.59
2022-12-14T09:02:07.790Z,99094.03
2022-12-14T09:03:41.573Z,99096.59
2022-12-14T09:05:15.236Z,99112.25
2022-12-14T09:06:49.034Z,99100.91
2022-12-14T09:08:22.415Z,99100.13
2022-12-14T09:09:56.000Z,99104.44
2022-12-14T09:11:29.552Z,99092.22
2022-12-14T09:13:02.814Z,99087.00
2022-12-14T09:14:36.945Z,99085.28
2022-12-14T09:16:14.206Z,99094.81
2022-12-14T09:17:51.365Z,99088.72
2022-12-14T09:19:24.605Z,99094.00
2022-12-14T09:20:58.612Z,99092.16
2022-12-14T09:22:31.831Z,99091.22
2022-12-14T09:24:06.829Z,99085.13
2022-12-14T09:25:40.105Z,99086.84
2022-12-14T09:27:13.495Z,99081.63
2022-12-14T09:28:48.916Z,99090.41
2022-12-14T09:30:26.654Z,99090.34
2022-12-14T09:32:20.854Z,99086.88
2022-12-14T09:33:56.839Z,99093.78
2022-12-14T09:35:30.701Z,99069.34
2022-12-14T09:37:05.339Z,99075.38
2022-12-14T09:38:44.289Z,99062.41
2022-12-14T09:40:27.666Z,99059.88
2022-12-14T09:42:17.908Z,99052.22
2022-12-14T09:43:56.174Z,99052.16
2022-12-14T09:45:34.094Z,99052.84
2022-12-14T09:47:14.377Z,99060.53
2022-12-14T09:48:49.191Z,99049.94
2022-12-14T09:50:25.759Z,99048.06
2022-12-14T09:52:02.854Z,99043.59
2022-12-14T09:53:38.289Z,99056.59
2022-12-14T09:55:21.214Z,99046.03
2022-12-14T09:56:56.299Z,99044.06
2022-12-14T09:58:32.628Z,99046.47
2022-12-14T10:00:13.236Z,99029.75
2022-12-14T10:02:29.286Z,99044.78
2022-12-14T10:04:01.647Z,99035.47
2022-12-14T10:06:03.415Z,99040.75
2022-12-14T10:07:42.678Z,99036.28
2022-12-14T10:09:24.538Z,99028.31
2022-12-14T10:11:07.410Z,99026.47
2022-12-14T10:12:53.984Z,99016.81
2022-12-14T10:14:44.332Z,99024.66
2022-12-14T10:16:26.514Z,99017.59
2022-12-14T10:18:49.843Z,99026.41
2022-12-14T10:20:23.600Z,99021.22
2022-12-14T10:22:02.143Z,99023.88
2022-12-14T10:23:36.778Z,99016.91
2022-12-14T10:25:15.198Z,99012.63
2022-12-14T10:26:52.657Z,99014.47
2022-12-14T10:28:39.424Z,99011.06
2022-12-14T10:30:19.758Z,99001.75
2022-12-14T10:32:01.299Z,98995.69
2022-12-14T10:33:35.117Z,99002.72
2022-12-14T10:35:16.090Z,99001.22
2022-12-14T10:36:55.935Z,98997.91
2022-12-14T10:38:39.308Z,99003.94
2022-12-14T10:40:29.197Z,98998.00
2022-12-14T10:42:16.873Z,98992.81
2022-12-14T10:43:58.374Z,98989.38
2022-12-14T10:45:41.098Z,98986.78
2022-12-14T10:47:21.240Z,98978.94
2022-12-14T10:49:01.361Z,98969.41
2022-12-14T10:50:44.258Z,98966.75
2022-12-14T10:52:27.384Z,98957.97
2022-12-14T10:54:17.053Z,98956.09
2022-12-14T10:55:56.356Z,98957.06
2022-12-14T10:57:30.945Z,98961.31
2022-12-14T10:59:35.108Z,98959.44
2022-12-14T11:01:15.820Z,98956.75
2022-12-14T11:02:51.534Z,98955.84
2022-12-14T11:04:31.460Z,98956.84
2022-12-14T11:06:12.083Z,98949.06
2022-12-14T11:07:46.475Z,98953.53
2022-12-14T11:09:26.147Z,98951.84
2022-12-14T11:11:12.776Z,98947.44
2022-12-14T11:13:00.586Z,98944.91
2022-12-14T11:14:34.077Z,98952.75
2022-12-14T11:16:33.724Z,98954.59
2022-12-14T11:18:31.144Z,98961.53
2022-12-14T11:20:17.711Z,98967.66
2022-12-14T11:21:57.243Z,98965.22
2022-12-14T11:23:31.937Z,98958.25
2022-12-14T11:25:07.090Z,98968.59
2022-12-14T11:26:43.826Z,98950.25
2022-12-14T11:28:22.313Z,98943.13
2022-12-14T11:29:56.207Z,98936.97
2022-12-14T11:31:35.732Z,98930.00
2022-12-14T11:33:17.893Z,98936.13
2022-12-14T11:34:59.778Z,98939.66
2022-12-14T11:36:55.790Z,98935.25
2022-12-14T11:38:31.686Z,98934.34
2022-12-14T11:40:08.499Z,98927.28
2022-12-14T11:41:44.245Z,98935.84
2022-12-14T11:43:26.688Z,98931.38
2022-12-14T11:45:21.568Z,98948.94
2022-12-14T11:47:02.029Z,98943.78
2022-12-14T11:48:38.558Z,98945.47
2022-12-14T11:50:25.883Z,98947.34
2022-12-14T11:52:02.711Z,98945.75
2022-12-14T11:53:36.385Z,98938.84
2022-12-14T11:55:16.220Z,98939.91
2022-12-14T11:56:54.360Z,98945.09
2022-12-14T11:58:32.324Z,98947.69
2022-12-14T12:00:09.162Z,98938.28
2022-12-14T12:01:42.790Z,98936.56
2022-12-14T12:03:20.916Z,98940.03
2022-12-14T12:04:58.635Z,98944.19
2022-12-14T12:06:33.302Z,98939.72
2022-12-14T12:08:07.749Z,98937.84
2022-12-14T12:09:43.318Z,98940.38
2022-12-14T12:11:21.139Z,98935.94
2022-12-14T12:12:56.833Z,98928.06
2022-12-14T12:14:34.643Z,98919.38
2022-12-14T12:16:15.738Z,98921.13
2022-12-14T12:17:55.649Z,98921.00
2022-12-14T12:19:34.411Z,98916.69
2022-12-14T12:21:14.498Z,98909.69
2022-12-14T12:22:53.551Z,98912.22
2022-12-14T12:24:30.285Z,98911.31
2022-12-14T12:26:12.574Z,98908.75
2022-12-14T12:27:53.411Z,98891.53
2022-12-14T12:29:32.188Z,98907.16
2022-12-14T12:31:13.121Z,98915.94
2022-12-14T12:32:50.545Z,98915.94
2022-12-14T12:34:30.034Z,98924.69
2022-12-14T12:36:06.422Z,98930.03
2022-12-14T12:37:48.755Z,98936.91
2022-12-14T12:39:26.590Z,98928.09
2022-12-14T12:41:07.757Z,98940.38
2022-12-14T12:42:46.569Z,98930.78
2022-12-14T12:44:37.554Z,98940.25
2022-12-14T12:46:17.017Z,98917.53
2022-12-14T12:47:55.595Z,98916.66
2022-12-14T12:49:29.132Z,98921.88
2022-12-14T12:51:05.566Z,98927.13
2022-12-14T12:53:02.394Z,98919.31
2022-12-14T12:54:41.231Z,98929.03
2022-12-14T12:56:18.380Z,98921.25
2022-12-14T12:57:55.853Z,98919.63
2022-12-14T12:59:39.904Z,98924.75
2022-12-14T13:01:24.255Z,98931.81
2022-12-14T13:03:02.436Z,98935.22
2022-12-14T13:04:49.174Z,98938.63
2022-12-14T13:06:31.567Z,98933.47
2022-12-14T13:08:09.737Z,98932.50
2022-12-14T13:09:49.344Z,98924.56
2022-12-14T13:11:27.706Z,98921.00
2022-12-14T13:13:10.004Z,98915.88
2022-12-14T13:14:49.906Z,98928.06
2022-12-14T13:16:30.141Z,98936.72
2022-12-14T13:18:07.477Z,98927.16
2022-12-14T13:19:52.077Z,98936.66
2022-12-14T13:21:35.046Z,98937.44
2022-12-14T13:23:36.543Z,98949.69
2022-12-14T13:25:13.713Z,98943.47
2022-12-14T13:27:19.432Z,98946.88
2022-12-14T13:28:59.234Z,98935.59
2022-12-14T13:30:47.724Z,98932.06
2022-12-14T13:32:39.054Z,98928.66
2022-12-14T13:34:34.287Z,98929.47
2022-12-14T13:36:40.007Z,98931.16
2022-12-14T13:38:33.996Z,98915.50
2022-12-14T13:40:41.652Z,98929.44
2022-12-14T13:42:24.503Z,98918.88
2022-12-14T13:44:26.568Z,98916.25
2022-12-14T13:46:17.126Z,98911.97
2022-12-14T13:47:54.581Z,98911.84
2022-12-14T13:49:29.444Z,98914.50
2022-12-14T13:51:05.617Z,98918.75
2022-12-14T13:52:42.460Z,98911.78
2022-12-14T13:54:22.977Z,98908.31
2022-12-14T13:55:58.039Z,98911.91
2022-12-14T13:57:32.366Z,98925.88
2022-12-14T13:59:18.278Z,98925.06
2022-12-14T14:00:58.025Z,98916.41
2022-12-14T14:02:43.311Z,98906.00
2022-12-14T14:04:22.057Z,98910.44
2022-12-14T14:05:59.584Z,98911.38
2022-12-14T14:07:52.402Z,98903.53
2022-12-14T14:10:00.597Z,98902.69
2022-12-14T14:11:55.388Z,98903.63
2022-12-14T14:14:03.066Z,98891.53
2022-12-14T14:16:11.330Z,98889.88
2022-12-14T14:17:44.403Z,98890.97
2022-12-14T14:19:24.061Z,98900.59
2022-12-14T14:21:31.903Z,98921.50
2022-12-14T14:23:34.234Z,98921.53
2022-12-14T14:25:41.729Z,98918.06
2022-12-14T14:27:21.236Z,98933.81
2022-12-14T14:29:20.542Z,98927.69
2022-12-14T14:30:56.992Z,98934.69
2022-12-14T14:32:40.387Z,98926.75
2022-12-14T14:34:22.156Z,98929.38
2022-12-14T14:36:09.215Z,98932.00
2022-12-14T14:37:42.814Z,98933.75
2022-12-14T14:41:31.917Z,98918.09
2022-12-14T14:43:08.695Z,98911.16
2022-12-14T14:44:50.715Z,98908.53
2022-12-14T14:46:35.726Z,98892.97
2022-12-14T14:48:23.796Z,98907.72
2022-12-14T14:50:01.775Z,98902.50
2022-12-14T14:51:37.290Z,98895.56
2022-12-14T14:53:28.346Z,98885.25
2022-12-14T14:55:55.178Z,98884.31
2022-12-14T14:57:55.861Z,98885.19
2022-12-14T14:59:51.077Z,98879.13
2022-12-14T15:01:27.659Z,98866.97
2022-12-14T15:03:01.902Z,98854.75
2022-12-14T15:04:47.091Z,98858.28
2022-12-14T15:06:24.914Z,98843.53
2022-12-14T15:08:01.475Z,98840.16
2022-12-14T15:09:39.217Z,98839.28
2022-12-14T15:11:17.703Z,98829.72
2022-12-14T15:12:54.591Z,98831.41
2022-12-14T15:14:46.694Z,98831.41
2022-12-14T15:16:31.562Z,98819.16
2022-12-14T15:18:18.624Z,98819.25
2022-12-14T15:19:54.083Z,98807.06
2022-12-14T15:21:29.209Z,98803.69
2022-12-14T15:23:03.194Z,98811.59
2022-12-14T15:24:40.336Z,98812.47
2022-12-14T15:26:17.594Z,98799.50
2022-12-14T15:27:52.025Z,98805.41
2022-12-14T15:29:28.938Z,98802.75
2022-12-14T15:31:03.213Z,98803.59
2022-12-14T15:32:42.970Z,98804.44
2022-12-14T15:34:22.354Z,98796.59
2022-12-14T15:36:02.902Z,98791.41
2022-12-14T15:37:43.037Z,98787.97
2022-12-14T15:39:32.697Z,98770.69
2022-12-14T15:41:08.220Z,98777.63
2022-12-14T15:42:48.057Z,98780.22
2022-12-14T15:44:23.166Z,98771.56
2022-12-14T15:46:04.431Z,98772.41
2022-12-14T15:47:38.742Z,98777.66
2022-12-14T15:49:23.361Z,98775.84
2022-12-14T15:50:59.217Z,98773.25
2022-12-14T15:52:32.717Z,98768.84
2022-12-14T15:54:13.585Z,98777.56
2022-12-14T15:55:59.839Z,98791.53
2022-12-14T15:57:34.410Z,98807.25
2022-12-14T15:59:16.922Z,98802.09
2022-12-14T16:00:53.820Z,98799.59
2022-12-14T16:02:32.141Z,98808.28
2022-12-14T16:04:07.913Z,98830.19
2022-12-14T16:05:41.469Z,98821.47
2022-12-14T16:07:18.881Z,98824.88
2022-12-14T16:08:56.219Z,98825.75
2022-12-14T16:10:33.752Z,98826.53
2022-12-14T16:12:10.815Z,98833.53
2022-12-14T16:13:45.451Z,98836.94
2022-12-14T16:15:21.319Z,98842.19
2022-12-14T16:16:55.539Z,98834.31
2022-12-14T16:18:28.816Z,98840.34
2022-12-14T16:20:04.985Z,98830.78
2022-12-14T16:21:38.216Z,98823.81
2022-12-14T16:23:28.048Z,98817.69
2022-12-14T16:25:16.800Z,98825.53
2022-12-14T16:26:59.108Z,98826.31
2022-12-14T16:28:34.445Z,98821.03
2022-12-14T16:30:23.436Z,98824.47
2022-12-14T16:32:05.836Z,98825.38
2022-12-14T16:33:41.719Z,98823.66
2022-12-14T16:35:23.070Z,98820.22
2022-12-14T16:37:31.056Z,98817.66
2022-12-14T16:39:03.996Z,98825.53
2022-12-14T16:40:39.292Z,98821.09
2022-12-14T16:42:20.799Z,98811.47
2022-12-14T16:43:57.217Z,98827.09
2022-12-14T16:46:10.701Z,98835.81
2022-12-14T16:48:04.579Z,98836.78
2022-12-14T16:49:40.146Z,98842.88
2022-12-14T16:52:05.557Z,98843.56
2022-12-14T16:53:30.884Z,98843.53
2022-12-14T16:55:12.065Z,98834.81
2022-12-14T16:56:46.291Z,98843.50
2022-12-14T16:58:21.498Z,98846.97
2022-12-14T17:00:01.903Z,98838.28
2022-12-14T17:01:42.817Z,98832.16
2022-12-14T17:03:23.469Z,98825.22
2022-12-14T17:04:58.589Z,98840.03
2022-12-14T17:06:39.353Z,98835.59
2022-12-14T17:08:13.125Z,98829.50
2022-12-14T17:09:46.567Z,98815.53
2022-12-14T17:11:21.575Z,98817.25
2022-12-14T17:12:59.099Z,98815.53
2022-12-14T17:14:34.021Z,98820.75
2022-12-14T17:16:09.158Z,98821.59
2022-12-14T17:17:43.041Z,98826.84
2022-12-14T17:19:22.518Z,98844.25
2022-12-14T17:20:55.815Z,98848.59
2022-12-14T17:22:31.358Z,98852.16
2022-12-14T17:24:04.994Z,98843.53
2022-12-14T17:25:42.058Z,98850.53
2022-12-14T17:27:23.068Z,98854.00
2022-12-14T17:28:56.568Z,98853.06
2022-12-14T17:30:34.352Z,98864.34
2022-12-14T17:32:08.152Z,98855.50
2022-12-14T17:33:41.377Z,98852.06
2022-12-14T17:35:18.087Z,98865.94
2022-12-14T17:36:51.910Z,98872.00
2022-12-14T17:38:25.850Z,98871.97
2022-12-14T17:40:00.032Z,98860.59
2022-12-14T17:41:33.655Z,98860.56
2022-12-14T17:43:07.337Z,98857.09
2022-12-14T17:44:42.095Z,98839.81
2022-12-14T17:46:16.758Z,98845.91
2022-12-14T17:47:50.457Z,98842.53
2022-12-14T17:49:35.029Z,98853.81
2022-12-14T17:51:08.314Z,98849.50
2022-12-14T17:52:41.553Z,98846.94
2022-12-14T17:54:17.614Z,98855.69
2022-12-14T17:55:50.812Z,98850.47
2022-12-14T17:57:26.071Z,98839.97
2022-12-14T17:58:59.215Z,98845.16
2022-12-14T18:00:50.695Z,98835.66
2022-12-14T18:02:33.390Z,98848.72
2022-12-14T18:04:08.188Z,98847.75
2022-12-14T18:05:48.375Z,98845.03
2022-12-14T18:07:22.140Z,98841.47
2022-12-14T18:08:55.295Z,98832.75
2022-12-14T18:10:28.959Z,98829.22
2022-12-14T18:12:22.567Z,98825.75
2022-12-14T18:13:56.076Z,98828.41
2022-12-14T18:15:31.667Z,98824.13
2022-12-14T18:17:09.798Z,98821.66
2022-12-14T18:18:46.407Z,98833.78
2022-12-14T18:20:23.987Z,98825.09
2022-12-14T18:21:58.099Z,98824.28
2022-12-14T18:23:32.454Z,98820.84
2022-12-14T18:25:22.729Z,98824.38
2022-12-14T18:26:56.526Z,98807.09
2022-12-14T18:28:29.922Z,98812.31
2022-12-14T18:30:04.197Z,98804.66
2022-12-14T18:31:38.879Z,98821.19
2022-12-14T18:33:15.644Z,98809.00
2022-12-14T18:34:50.246Z,98807.31
2022-12-14T18:36:24.033Z,98805.63
2022-12-14T18:37:57.301Z,98803.03
2022-12-14T18:39:30.516Z,98804.78
2022-12-14T18:41:03.747Z,98806.53
2022-12-14T18:42:36.925Z,98802.09
2022-12-14T18:44:11.904Z,98791.66
2022-12-14T18:45:45.140Z,98781.16
2022-12-14T18:47:40.763Z,98769.00
2022-12-14T18:49:11.436Z,98779.44
2022-12-14T18:50:46.091Z,98763.81
2022-12-14T18:52:22.945Z,98768.16
2022-12-14T18:53:58.116Z,98768.13
2022-12-14T18:55:33.861Z,98767.28
2022-12-14T18:57:07.126Z,98765.63
2022-12-14T18:58:42.154Z,98769.06
2022-12-14T19:00:17.594Z,98779.44
2022-12-14T19:01:51.166Z,98777.66
2022-12-14T19:03:25.845Z,98768.91
2022-12-14T19:04:59.141Z,98768.78
2022-12-14T19:06:44.077Z,98759.25
2022-12-14T19:08:19.055Z,98760.06
2022-12-14T19:09:52.316Z,98761.84
2022-12-14T19:11:31.758Z,98762.69
2022-12-14T19:13:06.764Z,98769.53
2022-12-14T19:14:43.334Z,98762.53
2022-12-14T19:16:16.672Z,98759.88
2022-12-14T19:17:49.989Z,98754.66
2022-12-14T19:19:25.724Z,98746.94
2022-12-14T19:21:00.895Z,98747.84
2022-12-14T19:22:35.547Z,98747.84